Time;durP1;ratioP1;P1;durP2;ratioP2;P2;SDS_P1;SDS_P2;PMS_P1;PMS_P2;Temp;Humidity;BMP_temperature;BMP_pressure;BME280_temperature;BME280_humidity;BME280_pressure;Samples;Min_cycle;Max_cycle;Signal;HPM_P1;HPM_P2
2024/01/31 00:01:30;;;;;;;21.80;9.45;;;;;;;7.29;100.00;100427.88;5056087;28;20017;-78
2024/01/31 00:03:55;;;;;;;18.55;9.65;;;;;;;7.15;100.00;100413.00;5054402;28;20018;-78
2024/01/31 00:06:20;;;;;;;28.40;9.85;;;;;;;7.35;100.00;100435.38;5062982;28;20027;-78
2024/01/31 00:08:45;;;;;;;19.45;8.68;;;;;;;7.29;100.00;100430.56;5080515;28;20060;-78
2024/01/31 00:11:11;;;;;;;21.02;9.38;;;;;;;7.28;100.00;100426.16;5062848;28;20031;-78
2024/01/31 00:13:36;;;;;;;19.25;9.45;;;;;;;7.27;100.00;100427.16;5054482;28;20076;-78
2024/01/31 00:16:01;;;;;;;18.98;9.18;;;;;;;7.34;100.00;100433.69;5049786;28;20017;-78
2024/01/31 00:18:27;;;;;;;19.73;9.00;;;;;;;7.35;100.00;100436.22;5053971;28;20017;-79
2024/01/31 00:20:52;;;;;;;21.65;9.40;;;;;;;7.32;100.00;100417.66;5052896;28;20021;-78
2024/01/31 00:23:19;;;;;;;18.02;8.15;;;;;;;7.40;100.00;100427.72;5068939;28;20036;-78
2024/01/31 00:25:44;;;;;;;21.70;9.82;;;;;;;7.42;100.00;100431.13;5053349;28;20025;-78
2024/01/31 00:28:11;;;;;;;19.83;9.68;;;;;;;7.46;100.00;100421.75;5064414;28;20017;-78
2024/01/31 00:30:36;;;;;;;19.20;9.98;;;;;;;7.46;100.00;100419.91;5061166;28;20021;-78
2024/01/31 00:33:01;;;;;;;20.13;8.30;;;;;;;7.52;100.00;100429.28;5053901;28;20048;-79
2024/01/31 00:35:26;;;;;;;15.98;8.82;;;;;;;7.57;100.00;100436.91;5074490;28;20017;-79
2024/01/31 00:37:53;;;;;;;19.95;8.55;;;;;;;7.51;100.00;100427.56;5051314;28;20029;-77
2024/01/31 00:40:19;;;;;;;16.08;9.18;;;;;;;7.58;100.00;100431.38;5039977;28;20021;-77
2024/01/31 00:42:44;;;;;;;18.40;9.27;;;;;;;7.56;100.00;100425.28;5042368;28;20255;-76
2024/01/31 00:45:11;;;;;;;20.55;8.90;;;;;;;7.54;100.00;100412.97;5032293;28;20028;-76
2024/01/31 00:47:36;;;;;;;15.85;8.25;;;;;;;7.51;100.00;100410.56;5040791;28;20020;-78
2024/01/31 00:50:01;;;;;;;16.45;8.20;;;;;;;7.40;100.00;100395.41;5058881;28;20063;-78
2024/01/31 00:52:27;;;;;;;14.38;8.40;;;;;;;7.59;100.00;100441.16;5037807;28;20025;-78
2024/01/31 00:54:52;;;;;;;16.92;8.27;;;;;;;7.46;100.00;100427.13;5041719;28;20029;-78
2024/01/31 00:57:18;;;;;;;17.95;8.65;;;;;;;7.47;100.00;100423.47;5037499;28;20219;-78
2024/01/31 00:59:43;;;;;;;20.15;10.15;;;;;;;7.51;100.00;100435.66;5038057;28;20059;-78
2024/01/31 01:02:09;;;;;;;20.33;10.05;;;;;;;7.42;100.00;100441.91;5039784;28;20259;-77
2024/01/31 01:04:34;;;;;;;20.40;9.20;;;;;;;7.34;100.00;100412.16;5041052;28;20324;-78
2024/01/31 01:07:00;;;;;;;19.38;9.30;;;;;;;7.45;100.00;100441.63;5043052;28;20052;-78
2024/01/31 01:09:25;;;;;;;19.88;9.35;;;;;;;7.34;100.00;100441.78;5041506;28;20017;-78
2024/01/31 01:11:51;;;;;;;18.05;10.07;;;;;;;7.23;100.00;100435.53;5033682;28;20028;-76
2024/01/31 01:14:17;;;;;;;20.23;9.70;;;;;;;7.19;100.00;100433.25;5045264;28;20308;-76
2024/01/31 01:16:42;;;;;;;15.65;8.75;;;;;;;7.16;100.00;100434.38;5038427;28;20040;-77
2024/01/31 01:19:07;;;;;;;19.05;9.25;;;;;;;7.00;100.00;100417.97;5039832;28;20017;-76
2024/01/31 01:21:33;;;;;;;13.80;8.40;;;;;;;7.11;100.00;100433.97;5038204;28;20244;-79
2024/01/31 01:23:59;;;;;;;15.48;8.80;;;;;;;7.14;100.00;100449.81;5038737;28;20017;-78
2024/01/31 01:26:24;;;;;;;19.42;9.20;;;;;;;6.99;100.00;100421.63;5036908;28;20029;-78
2024/01/31 01:28:49;;;;;;;21.80;9.45;;;;;;;7.03;100.00;100440.03;5045183;28;20071;-78
2024/01/31 01:31:15;;;;;;;15.45;8.73;;;;;;;6.99;100.00;100427.00;5036258;28;20034;-78
2024/01/31 01:33:40;;;;;;;15.80;9.10;;;;;;;7.15;100.00;100459.63;5041624;28;20021;-78
2024/01/31 01:36:06;;;;;;;19.55;8.90;;;;;;;7.06;100.00;100427.31;5043183;28;20316;-77
2024/01/31 01:38:32;;;;;;;21.35;9.63;;;;;;;7.23;100.00;100449.00;5039215;28;20017;-78
2024/01/31 01:40:57;;;;;;;14.68;8.48;;;;;;;7.22;100.00;100436.50;5039191;28;20024;-78
2024/01/31 01:43:23;;;;;;;19.48;9.07;;;;;;;7.33;100.00;100445.44;5041703;28;20283;-79
2024/01/31 01:45:55;;;;;;;16.27;9.02;;;;;;;7.24;100.00;100425.59;5040309;28;20029;-78
2024/01/31 01:48:21;;;;;;;16.35;8.57;;;;;;;7.24;100.00;100437.22;5044092;28;20025;-78
2024/01/31 01:50:46;;;;;;;19.35;9.07;;;;;;;7.24;100.00;100425.59;5062474;28;20083;-78
2024/01/31 01:53:11;;;;;;;19.08;9.48;;;;;;;7.27;100.00;100424.47;5041581;28;20332;-78
2024/01/31 01:55:39;;;;;;;21.00;9.77;;;;;;;7.38;100.00;100435.94;5041163;28;20033;-78
2024/01/31 01:58:04;;;;;;;17.38;9.23;;;;;;;7.39;100.00;100431.41;5041940;28;20066;-77
2024/01/31 02:00:32;;;;;;;19.52;9.40;;;;;;;7.42;100.00;100434.66;5041447;28;20025;-77
2024/01/31 02:02:59;;;;;;;17.95;8.65;;;;;;;7.31;100.00;100418.66;5040967;28;20068;-77
2024/01/31 02:05:25;;;;;;;21.00;9.15;;;;;;;7.27;100.00;100406.47;5049119;28;20296;-77
2024/01/31 02:07:51;;;;;;;20.02;9.85;;;;;;;7.22;100.00;100401.50;5038862;28;20032;-77
2024/01/31 02:10:16;;;;;;;16.70;9.23;;;;;;;7.30;100.00;100416.13;5119652;22;20107;-78
2024/01/31 02:12:42;;;;;;;21.67;9.18;;;;;;;7.24;100.00;100410.31;5085766;28;20031;-78
2024/01/31 02:15:08;;;;;;;19.27;9.40;;;;;;;7.26;100.00;100420.94;5084868;28;20031;-78
2024/01/31 02:17:33;;;;;;;18.85;9.20;;;;;;;7.19;100.00;100401.81;5083429;28;20016;-78
2024/01/31 02:19:59;;;;;;;20.38;8.85;;;;;;;7.21;100.00;100417.81;5085891;28;20035;-78
2024/01/31 02:22:24;;;;;;;27.50;10.05;;;;;;;7.18;100.00;100412.72;5079494;28;20081;-78
2024/01/31 02:24:50;;;;;;;18.95;9.00;;;;;;;7.16;100.00;100407.47;5080174;28;20019;-78
2024/01/31 02:27:15;;;;;;;17.70;9.27;;;;;;;7.24;100.00;100414.84;5096712;28;20345;-78
2024/01/31 02:29:41;;;;;;;20.77;8.93;;;;;;;7.27;100.00;100400.25;5086968;28;20020;-77
2024/01/31 02:32:06;;;;;;;17.35;9.23;;;;;;;7.25;100.00;100397.69;5079371;28;20023;-77
2024/01/31 02:34:32;;;;;;;21.77;9.95;;;;;;;7.33;100.00;100413.13;5086210;28;20024;-77
2024/01/31 02:36:57;;;;;;;18.98;9.77;;;;;;;7.18;100.00;100386.66;5105250;28;20699;-78
2024/01/31 02:39:24;;;;;;;17.40;9.45;;;;;;;7.22;100.00;100397.97;5101307;28;20215;-77
2024/01/31 02:41:49;;;;;;;23.73;10.48;;;;;;;7.16;100.00;100399.41;5100568;28;20027;-78
2024/01/31 02:44:14;;;;;;;17.83;9.60;;;;;;;7.22;100.00;100401.50;5103896;28;20061;-78
2024/01/31 02:46:40;;;;;;;19.63;9.40;;;;;;;7.19;100.00;100409.88;5078066;28;20027;-78
2024/01/31 02:49:07;;;;;;;21.45;10.23;;;;;;;7.21;100.00;100417.81;5084619;28;20019;-77
2024/01/31 02:51:34;;;;;;;21.23;10.00;;;;;;;7.21;100.00;100409.75;5085517;28;20016;-78
2024/01/31 02:54:00;;;;;;;19.67;9.23;;;;;;;7.22;100.00;100414.97;5084793;28;20019;-78
2024/01/31 02:56:25;;;;;;;19.65;10.25;;;;;;;7.14;100.00;100404.06;5087750;28;20046;-78
2024/01/31 02:58:50;;;;;;;16.33;9.13;;;;;;;7.05;100.00;100396.84;5096614;28;20227;-79
2024/01/31 03:01:16;;;;;;;17.38;9.35;;;;;;;7.10;100.00;100401.78;5091385;28;20038;-78
2024/01/31 03:03:41;;;;;;;21.23;9.52;;;;;;;7.05;100.00;100413.00;5113311;28;20028;-78
2024/01/31 03:06:07;;;;;;;20.73;9.85;;;;;;;7.03;100.00;100406.91;5099787;28;20020;-77
2024/01/31 03:08:32;;;;;;;21.67;9.68;;;;;;;6.94;100.00;100394.28;5100150;28;20036;-77
2024/01/31 03:10:57;;;;;;;19.83;9.48;;;;;;;6.99;100.00;100397.41;5085558;28;20087;-77
2024/01/31 03:13:23;;;;;;;22.58;8.93;;;;;;;7.00;100.00;100382.97;5102594;28;20099;-78
2024/01/31 03:15:48;;;;;;;15.57;9.55;;;;;;;6.95;100.00;100393.31;5084926;28;20030;-77
2024/01/31 03:18:13;;;;;;;16.98;9.25;;;;;;;6.92;100.00;100393.59;5087438;28;20026;-77
2024/01/31 03:20:39;;;;;;;19.75;9.25;;;;;;;6.88;100.00;100397.56;5084395;28;20307;-78
2024/01/31 03:23:04;;;;;;;19.50;8.82;;;;;;;6.78;100.00;100379.53;5101439;28;20020;-77
2024/01/31 03:25:29;;;;;;;20.35;9.10;;;;;;;6.83;100.00;100389.88;5085254;28;20367;-77
2024/01/31 03:27:55;;;;;;;16.48;8.48;;;;;;;6.95;100.00;100398.69;5111796;28;20226;-77
2024/01/31 03:30:20;;;;;;;14.55;8.88;;;;;;;6.98;100.00;100398.41;5089285;28;20024;-77
2024/01/31 03:32:46;;;;;;;17.23;8.40;;;;;;;6.92;100.00;100385.53;5090910;28;20020;-77
2024/01/31 03:35:11;;;;;;;15.40;8.43;;;;;;;7.05;100.00;100396.84;5097634;28;20019;-78
2024/01/31 03:37:37;;;;;;;15.75;8.02;;;;;;;7.04;100.00;100384.38;5096700;28;20020;-78
2024/01/31 03:40:07;;;;;;;17.35;8.55;;;;;;;7.15;100.00;100397.72;5119437;28;20051;-77
2024/01/31 03:42:32;;;;;;;22.23;9.52;;;;;;;7.18;100.00;100396.56;5087709;28;20454;-77
2024/01/31 03:44:58;;;;;;;14.32;8.38;;;;;;;7.23;100.00;100395.16;5088387;28;20026;-77
2024/01/31 03:47:23;;;;;;;15.43;7.97;;;;;;;7.13;100.00;100388.91;5105204;28;20036;-77
2024/01/31 03:49:51;;;;;;;15.93;7.78;;;;;;;7.31;100.00;100401.66;5082146;28;20020;-78
2024/01/31 03:52:16;;;;;;;16.42;8.32;;;;;;;7.22;100.00;100368.38;5088134;28;20070;-77
2024/01/31 03:54:43;;;;;;;19.67;8.07;;;;;;;7.32;100.00;100384.50;5086879;28;20215;-77
2024/01/31 03:57:08;;;;;;;16.65;8.25;;;;;;;7.41;100.00;100403.38;5099034;28;20058;-78
2024/01/31 03:59:34;;;;;;;15.98;8.70;;;;;;;7.41;100.00;100389.03;5086121;28;20027;-77
2024/01/31 04:01:59;;;;;;;17.60;8.68;;;;;;;7.38;100.00;100375.84;5105381;28;20058;-78
2024/01/31 04:04:24;;;;;;;19.08;8.52;;;;;;;7.28;100.00;100377.72;5089149;28;20047;-78
2024/01/31 04:06:49;;;;;;;18.50;8.90;;;;;;;7.34;100.00;100396.00;5106170;28;20020;-78
2024/01/31 04:09:15;;;;;;;15.93;8.18;;;;;;;7.42;100.00;100398.81;5086742;28;20097;-77
2024/01/31 04:11:40;;;;;;;18.67;9.18;;;;;;;7.39;100.00;100399.13;5081146;28;20044;-79
2024/01/31 04:14:15;;;;;;;16.90;8.50;;;;;;;7.30;100.00;100383.81;5085904;28;20015;-80
2024/01/31 04:16:40;;;;;;;17.13;7.88;;;;;;;7.28;100.00;100370.47;5086363;28;20307;-79
2024/01/31 04:19:07;;;;;;;13.88;7.53;;;;;;;7.32;100.00;100381.81;5087500;28;20042;-79
2024/01/31 04:21:32;;;;;;;13.68;8.10;;;;;;;7.38;100.00;100402.78;5083299;28;20058;-79
2024/01/31 04:23:58;;;;;;;12.70;7.43;;;;;;;7.35;100.00;100401.22;5086476;28;20238;-79
2024/01/31 04:26:24;;;;;;;18.77;8.18;;;;;;;7.30;100.00;100416.13;5086127;28;20382;-79
2024/01/31 04:28:49;;;;;;;16.23;8.07;;;;;;;7.25;100.00;100422.75;5104822;28;20056;-78
2024/01/31 04:31:47;;;;;;;16.85;8.85;;;;;;;7.19;100.00;100409.03;5073288;28;20385;-80
2024/01/31 04:34:15;;;;;;;15.27;8.35;;;;;;;7.27;100.00;100416.41;5073924;28;20447;-79
2024/01/31 04:36:40;;;;;;;20.25;8.32;;;;;;;7.23;100.00;100422.06;5054200;28;20032;-79
2024/01/31 04:39:06;;;;;;;15.18;8.20;;;;;;;7.09;100.00;100406.34;5081046;28;20090;-79
2024/01/31 04:41:47;;;;;;;17.30;8.43;;;;;;;7.21;100.00;100418.66;5085971;28;20029;-77
2024/01/31 04:44:12;;;;;;;16.08;8.65;;;;;;;7.25;100.00;100430.84;5105625;28;20113;-79
2024/01/31 04:46:39;;;;;;;19.70;8.35;;;;;;;7.30;100.00;100429.56;5086546;28;20027;-76
2024/01/31 04:49:21;;;;;;;15.90;8.60;;;;;;;7.29;100.00;100427.88;5085388;28;20030;-78
2024/01/31 04:52:08;;;;;;;15.07;9.02;;;;;;;7.35;100.00;100435.38;5084513;28;20084;-79
2024/01/31 04:54:39;;;;;;;15.38;8.48;;;;;;;7.38;100.00;100435.09;5104474;28;20032;-77
2024/01/31 04:57:04;;;;;;;19.27;8.60;;;;;;;7.32;100.00;100435.66;5087798;28;20058;-78
2024/01/31 04:59:29;;;;;;;16.23;8.68;;;;;;;7.29;100.00;100433.28;5082167;28;20024;-77
2024/01/31 05:01:55;;;;;;;16.75;9.10;;;;;;;7.19;100.00;100444.88;5086657;28;20027;-77
2024/01/31 05:04:20;;;;;;;18.20;9.85;;;;;;;6.88;100.00;100414.53;5102091;28;20066;-79
2024/01/31 05:06:46;;;;;;;16.98;9.38;;;;;;;6.99;100.00;100445.84;5100354;28;20221;-78
2024/01/31 05:09:11;;;;;;;20.23;8.88;;;;;;;6.95;100.00;100447.13;5085107;28;20307;-78
2024/01/31 05:11:36;;;;;;;15.80;8.95;;;;;;;6.86;100.00;100454.16;5086961;28;20107;-77
2024/01/31 05:14:02;;;;;;;14.80;8.95;;;;;;;7.02;100.00;100465.28;5083507;28;20012;-78
2024/01/31 05:16:27;;;;;;;19.50;9.52;;;;;;;6.87;100.00;100453.19;5086590;28;20027;-78
2024/01/31 05:18:52;;;;;;;17.45;9.38;;;;;;;7.03;100.00;100479.56;5085666;28;20036;-78
2024/01/31 05:21:30;;;;;;;16.00;9.10;;;;;;;7.05;100.00;100482.09;5087782;28;20036;-77
2024/01/31 05:23:56;;;;;;;17.88;9.55;;;;;;;6.97;100.00;100474.75;5110884;22;20418;-57
2024/01/31 05:26:21;;;;;;;18.42;9.38;;;;;;;7.05;100.00;100482.09;5092480;28;20047;-56
2024/01/31 05:28:47;;;;;;;19.27;9.95;;;;;;;7.05;100.00;100493.75;5088228;28;20023;-56
2024/01/31 05:31:12;;;;;;;18.92;10.43;;;;;;;7.08;100.00;100489.91;5089194;28;20040;-56
2024/01/31 05:33:38;;;;;;;17.67;10.23;;;;;;;7.06;100.00;100481.97;5086431;28;20046;-56
2024/01/31 05:36:03;;;;;;;21.55;10.38;;;;;;;7.02;100.00;100480.53;5088657;28;20032;-60
2024/01/31 05:38:29;;;;;;;18.17;9.82;;;;;;;7.15;100.00;100491.91;5065636;28;20111;-57
2024/01/31 05:40:54;;;;;;;18.27;9.40;;;;;;;7.18;100.00;100485.41;5087041;28;20061;-56
2024/01/31 05:43:20;;;;;;;18.65;9.55;;;;;;;7.18;100.00;100488.94;5093222;28;20471;-57
2024/01/31 05:45:48;;;;;;;21.85;9.27;;;;;;;7.12;100.00;100489.47;5088989;28;20043;-57
2024/01/31 05:48:16;;;;;;;23.10;10.63;;;;;;;7.10;100.00;100490.59;5088162;28;20026;-57
2024/01/31 05:50:43;;;;;;;17.37;10.20;;;;;;;7.10;100.00;100496.88;5091978;28;20035;-57
2024/01/31 05:53:11;;;;;;;26.95;11.70;;;;;;;7.09;100.00;100497.84;5085565;28;20262;-57
2024/01/31 05:55:38;;;;;;;20.00;10.97;;;;;;;7.04;100.00;100502.78;5089997;28;20043;-57
2024/01/31 05:58:04;;;;;;;20.27;9.48;;;;;;;6.98;100.00;100482.66;5088878;28;20737;-57
2024/01/31 06:00:29;;;;;;;20.00;10.23;;;;;;;7.12;100.00;100499.41;5089673;28;20030;-57
2024/01/31 06:02:54;;;;;;;18.85;9.15;;;;;;;7.12;100.00;100499.41;5079427;28;20099;-57
2024/01/31 06:05:20;;;;;;;18.35;9.45;;;;;;;7.14;100.00;100500.97;5086879;28;20019;-57
2024/01/31 06:07:45;;;;;;;19.20;10.20;;;;;;;7.09;100.00;100495.16;5091699;28;20024;-57
2024/01/31 06:10:11;;;;;;;15.45;9.57;;;;;;;7.18;100.00;100510.47;5091239;28;20649;-57
2024/01/31 06:12:36;;;;;;;16.05;9.15;;;;;;;7.24;100.00;100504.53;5090181;28;20429;-58
2024/01/31 06:15:01;;;;;;;17.77;8.82;;;;;;;7.31;100.00;100510.22;5086262;28;20051;-57
2024/01/31 06:17:27;;;;;;;15.43;8.23;;;;;;;7.32;100.00;100501.13;5069741;28;20024;-57
2024/01/31 06:19:52;;;;;;;17.98;8.57;;;;;;;7.43;100.00;100508.22;5071075;28;20366;-57
2024/01/31 06:22:18;;;;;;;20.70;9.68;;;;;;;7.36;100.00;100507.94;5074832;28;20024;-57
2024/01/31 06:24:43;;;;;;;17.55;8.77;;;;;;;7.46;100.00;100502.53;5088378;28;20056;-57
2024/01/31 06:27:09;;;;;;;19.08;9.95;;;;;;;7.36;100.00;100501.69;5091760;28;20031;-57
2024/01/31 06:29:34;;;;;;;19.45;10.07;;;;;;;7.46;100.00;100500.69;5087829;28;20065;-57
2024/01/31 06:32:00;;;;;;;21.58;9.95;;;;;;;7.40;100.00;100505.81;5067690;28;20475;-57
2024/01/31 06:34:29;;;;;;;18.42;10.70;;;;;;;7.35;100.00;100508.06;5084327;28;20016;-57
2024/01/31 06:36:54;;;;;;;17.60;10.73;;;;;;;7.34;100.00;100501.84;5087190;28;20066;-57
2024/01/31 06:39:20;;;;;;;25.25;10.70;;;;;;;7.35;100.00;100505.38;5090382;28;20024;-57
2024/01/31 06:41:45;;;;;;;19.27;10.98;;;;;;;7.31;100.00;100503.94;5090593;28;20025;-57
2024/01/31 06:44:11;;;;;;;20.65;10.60;;;;;;;7.29;100.00;100516.72;5090439;28;20107;-57
2024/01/31 06:46:36;;;;;;;20.50;11.40;;;;;;;7.25;100.00;100508.91;5071793;28;20024;-58
2024/01/31 06:49:02;;;;;;;21.25;10.57;;;;;;;7.29;100.00;100516.72;5089450;28;20200;-59
2024/01/31 06:51:28;;;;;;;17.98;10.43;;;;;;;7.32;100.00;100513.75;5070573;28;20024;-57
2024/01/31 06:53:54;;;;;;;21.35;11.05;;;;;;;7.32;100.00;100522.66;5064198;28;20024;-57
2024/01/31 06:56:19;;;;;;;20.88;11.05;;;;;;;7.40;100.00;100521.97;5067906;28;20807;-57
2024/01/31 06:58:49;;;;;;;18.80;11.77;;;;;;;7.38;100.00;100529.31;5081224;28;20036;-57
2024/01/31 07:01:23;;;;;;;19.95;11.68;;;;;;;7.42;100.00;100518.16;5088590;28;20024;-57
2024/01/31 07:03:48;;;;;;;23.13;11.73;;;;;;;7.44;100.00;100528.75;5072547;28;20056;-57
2024/01/31 07:06:15;;;;;;;22.42;10.90;;;;;;;7.43;100.00;100522.53;5091082;28;20175;-57
2024/01/31 07:08:41;;;;;;;20.23;12.13;;;;;;;7.41;100.00;100520.97;5092052;28;20114;-57
2024/01/31 07:11:10;;;;;;;22.13;11.27;;;;;;;7.41;100.00;100526.34;5091094;28;20143;-57
2024/01/31 07:13:36;;;;;;;24.42;12.32;;;;;;;7.39;100.00;100520.28;5091286;28;20061;-57
2024/01/31 07:16:09;;;;;;;24.80;13.82;;;;;;;7.32;100.00;100527.22;5092531;28;20134;-57
2024/01/31 07:18:36;;;;;;;25.25;13.02;;;;;;;7.24;100.00;100527.91;5091937;28;20376;-57
2024/01/31 07:21:02;;;;;;;23.73;12.82;;;;;;;7.20;100.00;100521.97;5094703;28;20078;-57
2024/01/31 07:23:29;;;;;;;27.15;12.75;;;;;;;7.18;100.00;100520.41;5088869;28;20028;-57
2024/01/31 07:25:54;;;;;;;23.08;12.70;;;;;;;7.07;100.00;100510.56;5095388;28;20027;-57
2024/01/31 07:28:20;;;;;;;30.50;14.07;;;;;;;7.05;100.00;100519.78;5092239;28;20036;-61
2024/01/31 07:30:46;;;;;;;26.17;13.55;;;;;;;7.02;100.00;100520.91;5094674;28;20098;-57
2024/01/31 07:33:14;;;;;;;26.88;13.60;;;;;;;6.97;100.00;100525.88;5092064;28;20115;-57
2024/01/31 07:35:39;;;;;;;29.58;13.65;;;;;;;6.98;100.00;100525.72;5093373;28;20090;-57
2024/01/31 07:38:04;;;;;;;27.70;11.88;;;;;;;7.02;100.00;100520.91;5060361;28;20447;-57
2024/01/31 07:40:30;;;;;;;27.80;13.32;;;;;;;7.03;100.00;100522.63;5097774;28;20032;-57
2024/01/31 07:42:56;;;;;;;29.38;14.45;;;;;;;6.99;100.00;100521.19;5095696;28;20055;-57
2024/01/31 07:45:21;;;;;;;29.20;13.85;;;;;;;6.92;100.00;100517.38;5091740;28;20021;-56
2024/01/31 07:47:47;;;;;;;26.38;14.70;;;;;;;6.94;100.00;100523.44;5088042;28;20028;-57
2024/01/31 07:50:13;;;;;;;32.10;14.80;;;;;;;6.92;100.00;100522.75;5095137;28;20035;-57
2024/01/31 07:52:39;;;;;;;32.65;15.45;;;;;;;6.95;100.00;100530.53;5089783;28;20506;-57
2024/01/31 07:55:07;;;;;;;28.05;13.10;;;;;;;7.00;100.00;100529.13;5094100;28;20052;-57
2024/01/31 07:57:33;;;;;;;27.80;12.85;;;;;;;6.98;100.00;100533.78;5092239;28;20097;-57
2024/01/31 07:59:59;;;;;;;24.20;12.55;;;;;;;6.97;100.00;100531.25;5095033;28;20478;-62
2024/01/31 08:02:24;;;;;;;20.55;11.15;;;;;;;6.97;100.00;100524.03;5089706;28;20106;-61
2024/01/31 08:04:51;;;;;;;25.83;12.00;;;;;;;6.96;100.00;100530.38;5095927;28;20020;-57
2024/01/31 08:07:16;;;;;;;21.90;11.23;;;;;;;6.97;100.00;100533.94;5088668;28;20103;-57
2024/01/31 08:09:42;;;;;;;21.58;11.93;;;;;;;6.99;100.00;100531.94;5124788;22;20172;-54
2024/01/31 08:12:07;;;;;;;21.83;11.45;;;;;;;7.06;100.00;100537.66;5072413;28;20048;-54
2024/01/31 08:14:33;;;;;;;27.52;11.85;;;;;;;7.13;100.00;100525.34;5074810;28;20021;-54
2024/01/31 08:16:59;;;;;;;22.67;11.40;;;;;;;7.41;100.00;100538.00;5073355;28;20439;-54
2024/01/31 08:19:24;;;;;;;29.83;13.15;;;;;;;7.50;100.00;100527.38;5071515;28;20068;-54
2024/01/31 08:21:50;;;;;;;25.95;12.32;;;;;;;7.61;100.00;100538.84;5069299;28;20021;-53
2024/01/31 08:24:15;;;;;;;24.40;12.25;;;;;;;7.65;100.00;100529.50;5071394;28;20082;-54
2024/01/31 08:26:41;;;;;;;28.05;12.25;;;;;;;7.63;100.00;100527.94;5075044;28;20051;-54
2024/01/31 08:29:07;;;;;;;26.63;12.48;;;;;;;7.72;100.00;100523.53;5068830;28;20096;-53
2024/01/31 08:31:32;;;;;;;22.70;12.15;;;;;;;7.85;100.00;100519.53;5066638;28;20028;-54
2024/01/31 08:33:58;;;;;;;32.03;12.90;;;;;;;7.97;100.00;100508.63;5070600;28;20122;-54
2024/01/31 08:36:23;;;;;;;25.95;12.32;;;;;;;8.26;100.00;100519.34;5068174;28;20021;-54
2024/01/31 08:38:49;;;;;;;33.55;12.15;;;;;;;8.34;100.00;100508.66;5072736;28;20037;-63
2024/01/31 08:41:14;;;;;;;23.92;11.63;;;;;;;8.27;100.00;100505.69;5072575;28;20491;-53
2024/01/31 08:43:40;;;;;;;23.90;11.65;;;;;;;8.16;100.00;100505.88;5073494;28;20040;-53
2024/01/31 08:46:05;;;;;;;21.15;10.48;;;;;;;8.29;100.00;100509.09;5071298;28;20022;-54
2024/01/31 08:48:31;;;;;;;26.00;11.25;;;;;;;8.29;100.00;100505.56;5073538;28;20032;-54
2024/01/31 08:50:57;;;;;;;23.70;10.45;;;;;;;8.27;100.00;100504.84;5070814;28;20372;-63
2024/01/31 08:53:23;;;;;;;22.42;10.18;;;;;;;8.40;100.00;100512.66;5070250;28;20037;-54
2024/01/31 08:55:48;;;;;;;22.25;10.85;;;;;;;8.52;100.00;100512.31;5074162;28;20379;-54
2024/01/31 08:58:35;;;;;;;23.48;11.00;;;;;;;8.66;100.00;100507.44;5073064;28;20033;-54
2024/01/31 09:01:01;;;;;;;18.63;9.82;;;;;;;8.70;100.00;100498.06;5069800;28;20403;-54
2024/01/31 09:03:28;;;;;;;18.85;10.60;;;;;;;8.76;100.00;100502.84;5071126;28;20032;-54
2024/01/31 09:05:53;;;;;;;23.02;11.38;;;;;;;8.72;100.00;100496.03;5073112;28;20052;-63
2024/01/31 09:08:27;;;;;;;21.80;11.23;;;;;;;8.74;100.00;100496.72;5072174;28;20044;-64
2024/01/31 09:11:27;;;;;;;16.48;9.77;;;;;;;8.66;100.00;100507.44;5072933;28;20024;-63
2024/01/31 09:13:58;;;;;;;18.35;10.25;;;;;;;8.58;100.00;100523.50;5197888;22;20034;-62
2024/01/31 09:16:41;;;;;;;24.67;10.90;;;;;;;8.55;100.00;100522.81;5150966;22;1324097;-55
2024/01/31 09:19:25;;;;;;;17.25;10.13;;;;;;;8.52;100.00;100506.91;5198938;22;20044;-54
2024/01/31 09:24:26;;;;;;;17.40;10.25;;;;;;;8.86;100.00;100500.09;5302986;22;20130;-56
2024/01/31 09:27:19;;;;;;;17.00;10.32;;;;;;;9.29;100.00;100506.63;5238964;22;22025;-54
2024/01/31 09:32:18;;;;;;;18.48;10.32;;;;;;;9.54;100.00;100492.38;5162349;22;20101;-55
2024/01/31 09:34:48;;;;;;;17.92;9.80;;;;;;;9.59;100.00;100497.31;5465800;22;20064;-62
2024/01/31 09:37:14;;;;;;;17.35;9.73;;;;;;;9.61;100.00;100498.81;5178855;22;20052;-62
2024/01/31 09:39:39;;;;;;;24.02;9.98;;;;;;;9.54;100.00;100510.44;5080892;28;20484;-64
2024/01/31 09:42:43;;;;;;;25.15;11.32;;;;;;;9.38;100.00;100506.56;5265035;22;20545;-63
2024/01/31 09:45:11;;;;;;;19.45;10.98;;;;;;;9.12;100.00;100511.88;5088745;28;20486;-63
2024/01/31 09:47:53;;;;;;;20.33;10.50;;;;;;;9.19;100.00;100504.00;5061256;28;20066;-63
2024/01/31 09:50:19;;;;;;;23.08;10.98;;;;;;;9.26;100.00;100498.84;5080799;28;20064;-63
2024/01/31 09:52:48;;;;;;;17.63;10.90;;;;;;;9.20;100.00;100503.84;5089711;28;20089;-63
2024/01/31 09:55:13;;;;;;;17.55;10.43;;;;;;;9.46;100.00;100500.41;5090270;28;20111;-63
2024/01/31 09:57:42;;;;;;;17.83;10.32;;;;;;;9.58;100.00;100492.88;5082895;28;20107;-63
2024/01/31 10:02:44;;;;;;;17.77;10.20;;;;;;;10.08;100.00;100478.75;5086846;22;20044;-64
2024/01/31 10:05:09;;;;;;;21.08;9.98;;;;;;;10.34;100.00;100473.34;5061355;28;20134;-64
2024/01/31 10:07:40;;;;;;;17.75;10.93;;;;;;;10.62;100.00;100481.28;5053063;28;20021;-64
2024/01/31 10:10:06;;;;;;;19.73;10.13;;;;;;;10.79;100.00;100469.50;5058194;28;20482;-64
2024/01/31 10:12:31;;;;;;;20.42;10.30;;;;;;;10.82;100.00;100471.91;5103378;22;20041;-65
2024/01/31 10:14:57;;;;;;;17.17;10.38;;;;;;;10.84;100.00;100463.59;5081655;28;20052;-64
2024/01/31 10:17:23;;;;;;;17.98;10.48;;;;;;;10.78;100.00;100467.81;5068186;28;20032;-64
2024/01/31 10:19:49;;;;;;;17.67;10.25;;;;;;;10.71;100.00;100467.59;5070616;28;20035;-65
2024/01/31 10:22:15;;;;;;;18.38;10.82;;;;;;;10.62;100.00;100455.06;5066247;28;20409;-65
2024/01/31 10:24:46;;;;;;;17.75;11.00;;;;;;;10.38;100.00;100463.06;5068792;28;20383;-64
2024/01/31 10:27:11;;;;;;;22.17;10.63;;;;;;;10.31;100.00;100470.97;5071700;28;20025;-64
2024/01/31 10:29:37;;;;;;;20.35;10.95;;;;;;;10.27;100.00;100469.56;5069052;28;20119;-64
2024/01/31 10:32:03;;;;;;;19.70;11.05;;;;;;;9.98;100.00;100462.66;5066620;28;20028;-63
2024/01/31 10:34:29;;;;;;;20.92;11.77;;;;;;;9.96;100.00;100471.94;5065268;28;20032;-64
2024/01/31 10:36:55;;;;;;;21.60;11.05;;;;;;;9.66;100.00;100463.22;5068371;28;20380;-64
2024/01/31 10:39:22;;;;;;;21.40;10.80;;;;;;;9.68;100.00;100466.63;5066648;28;20033;-64
2024/01/31 10:41:48;;;;;;;17.05;10.75;;;;;;;9.77;100.00;100468.41;5068272;28;20031;-62
2024/01/31 10:44:14;;;;;;;23.17;10.77;;;;;;;9.96;100.00;100447.59;5058234;28;20048;-62
2024/01/31 10:46:41;;;;;;;17.88;10.98;;;;;;;9.91;100.00;100449.91;5070118;28;20070;-61
2024/01/31 10:49:07;;;;;;;20.83;10.43;;;;;;;9.90;100.00;100465.25;5070871;28;20020;-62
2024/01/31 10:51:35;;;;;;;19.27;10.18;;;;;;;10.05;100.00;100454.72;5067227;28;20032;-61
2024/01/31 10:54:03;;;;;;;19.38;10.63;;;;;;;10.18;100.00;100455.16;5071453;28;20400;-61
2024/01/31 10:56:30;;;;;;;19.23;10.63;;;;;;;10.10;100.00;100441.56;5071625;28;20040;-61
2024/01/31 10:58:58;;;;;;;17.50;9.48;;;;;;;10.08;100.00;100447.13;5066882;28;20098;-61
2024/01/31 11:01:29;;;;;;;17.15;9.70;;;;;;;10.18;100.00;100444.31;5067937;28;20032;-61
2024/01/31 11:03:55;;;;;;;20.15;9.43;;;;;;;10.21;100.00;100441.28;5070467;28;20020;-61
2024/01/31 11:06:24;;;;;;;16.48;9.52;;;;;;;10.33;100.00;100438.38;5067254;28;20029;-61
2024/01/31 11:08:50;;;;;;;20.05;9.85;;;;;;;10.62;100.00;100433.41;5068607;28;20060;-61
2024/01/31 11:11:18;;;;;;;16.05;9.00;;;;;;;10.92;100.00;100425.69;5068547;28;20060;-61
2024/01/31 11:13:44;;;;;;;18.23;8.73;;;;;;;11.17;100.00;100418.47;5068210;28;20033;-61
2024/01/31 11:16:09;;;;;;;13.77;8.40;;;;;;;11.52;100.00;100425.44;5068120;28;20039;-61
2024/01/31 11:18:39;;;;;;;13.70;8.50;;;;;;;11.58;100.00;100415.75;5067648;28;20020;-61